Des Plaines, Illinois
Current Conditions -  °F | °C
As of 8:31 PM on Sunday 21 Dec 2014 (Local Time) from KORD Reporting Station
Overcast Overcast  
Wind Chill: 25°   Ceiling: 20000
Heat Index: 34°   Visibility: 10mi
Dew Point: 28°   Wind: 12mph
Humidity: 79%   Direction: 150°SSE
Pressure: 30.04"   Gusts: NA
Location:  42.04°N, 87.89°W
Report Text: KORD 220231Z 15010KT 10SM FEW022 SCT029 OVC200 01/M02 A3004 RMK AO2 T00111022
Loading
Personal Weather Stations






























Interactive Weather Map New forecast layout! Learn more

10-Day Weather Forecast

Advertisements
Track Severe Weather on mobile